createdAt,value
2023-01-11T00:01:57.493Z,1.15
2023-01-11T00:04:30.720Z,1.40
2023-01-11T00:07:00.171Z,1.10
2023-01-11T00:09:44.875Z,1.10
2023-01-11T00:12:14.383Z,1.30
2023-01-11T00:14:44.611Z,1.50
2023-01-11T00:17:12.760Z,1.13
2023-01-11T00:19:40.783Z,1.17
2023-01-11T00:22:09.289Z,1.20
2023-01-11T00:24:37.348Z,1.20
2023-01-11T00:27:07.038Z,1.08
2023-01-11T00:29:35.351Z,1.00
2023-01-11T00:32:03.660Z,1.15
2023-01-11T00:34:32.382Z,1.23
2023-01-11T00:37:00.641Z,1.40
2023-01-11T00:39:28.942Z,1.40
2023-01-11T00:42:14.553Z,1.10
2023-01-11T00:45:01.442Z,1.17
2023-01-11T00:47:43.393Z,1.27
2023-01-11T00:50:15.333Z,1.33
2023-01-11T00:52:43.992Z,1.05
2023-01-11T00:55:12.770Z,1.05
2023-01-11T00:57:40.938Z,1.38
2023-01-11T01:00:12.289Z,1.25
2023-01-11T01:02:41.210Z,1.90
2023-01-11T01:05:10.187Z,2.00
2023-01-11T01:07:38.668Z,1.40
2023-01-11T01:10:11.824Z,1.33
2023-01-11T01:12:57.920Z,1.30
2023-01-11T01:15:28.232Z,2.53
2023-01-11T01:17:57.167Z,1.30
2023-01-11T01:20:26.806Z,1.38
2023-01-11T01:22:55.065Z,1.00
2023-01-11T01:25:25.173Z,1.48
2023-01-11T01:27:53.174Z,1.27
2023-01-11T01:30:21.423Z,1.40
2023-01-11T01:32:50.978Z,1.63
2023-01-11T01:35:19.123Z,1.17
2023-01-11T01:37:47.628Z,1.13
2023-01-11T01:40:16.292Z,1.17
2023-01-11T01:42:44.482Z,1.10
2023-01-11T01:45:23.782Z,1.15
2023-01-11T01:47:58.160Z,1.60
2023-01-11T01:50:31.966Z,1.00
2023-01-11T01:53:04.349Z,1.20
2023-01-11T01:55:36.974Z,1.27
2023-01-11T01:58:08.979Z,1.00
2023-01-11T02:00:42.334Z,1.13
2023-01-11T02:03:17.635Z,1.15
2023-01-11T02:05:46.476Z,0.88
2023-01-11T02:08:27.469Z,1.40
2023-01-11T02:10:57.701Z,1.00
2023-01-11T02:13:26.859Z,0.90
2023-01-11T02:16:08.578Z,1.17
2023-01-11T02:18:39.315Z,1.40
2023-01-11T02:21:20.081Z,1.95
2023-01-11T02:24:11.657Z,1.13
2023-01-11T02:27:16.442Z,0.95
2023-01-11T02:29:58.688Z,0.90
2023-01-11T02:32:32.852Z,1.50
2023-01-11T02:35:12.569Z,1.20
2023-01-11T02:37:51.118Z,1.05
2023-01-11T02:40:26.776Z,1.30
2023-01-11T02:43:19.167Z,1.08
2023-01-11T02:45:53.571Z,0.88
2023-01-11T02:48:29.665Z,1.33
2023-01-11T02:51:04.931Z,1.20
2023-01-11T02:53:40.006Z,1.00
2023-01-11T02:56:11.929Z,0.90
2023-01-11T02:58:44.794Z,1.10
2023-01-11T03:01:14.793Z,1.17
2023-01-11T03:03:43.001Z,1.00
2023-01-11T03:06:16.501Z,1.20
2023-01-11T03:09:06.178Z,0.90
2023-01-11T03:12:06.345Z,0.98
2023-01-11T03:14:42.871Z,1.10
2023-01-11T03:17:24.890Z,1.40
2023-01-11T03:19:57.251Z,1.05
2023-01-11T03:22:32.773Z,1.10
2023-01-11T03:25:10.143Z,0.85
2023-01-11T03:27:48.226Z,1.20
2023-01-11T03:30:23.350Z,1.00
2023-01-11T03:32:59.891Z,0.90
2023-01-11T03:35:31.490Z,1.17
2023-01-11T03:38:04.243Z,1.30
2023-01-11T03:40:36.100Z,1.40
2023-01-11T03:43:14.123Z,1.10
2023-01-11T03:45:52.622Z,1.00
2023-01-11T03:48:26.912Z,1.25
2023-01-11T03:50:57.575Z,0.70
2023-01-11T03:53:28.785Z,0.90
2023-01-11T03:55:59.125Z,1.30
2023-01-11T03:58:29.902Z,1.30
2023-01-11T04:00:59.568Z,1.08
2023-01-11T04:03:29.498Z,1.00
2023-01-11T04:06:01.036Z,0.98
2023-01-11T04:08:29.384Z,1.30
2023-01-11T04:10:57.709Z,1.20
2023-01-11T04:13:26.051Z,1.10
2023-01-11T04:15:54.688Z,1.25
2023-01-11T04:18:22.722Z,1.10
2023-01-11T04:20:52.468Z,1.25
2023-01-11T04:23:20.720Z,1.35
2023-01-11T04:25:51.603Z,1.00
2023-01-11T04:28:19.567Z,1.75
2023-01-11T04:30:47.747Z,0.90
2023-01-11T04:33:15.811Z,1.20
2023-01-11T04:35:44.815Z,0.90
2023-01-11T04:38:14.410Z,1.05
2023-01-11T04:40:43.269Z,1.02
2023-01-11T04:43:10.648Z,0.82
2023-01-11T04:45:38.953Z,0.85
2023-01-11T04:48:07.846Z,2.55
2023-01-11T04:50:36.240Z,0.70
2023-01-11T04:53:04.683Z,0.90
2023-01-11T04:55:34.409Z,0.70
2023-01-11T04:58:02.675Z,0.90
2023-01-11T05:00:30.963Z,0.70
2023-01-11T05:03:00.393Z,0.95
2023-01-11T05:05:29.556Z,0.80
2023-01-11T05:07:57.964Z,0.70
2023-01-11T05:10:26.471Z,0.70
2023-01-11T05:12:56.253Z,0.80
2023-01-11T05:15:24.418Z,1.05
2023-01-11T05:17:52.563Z,1.13
2023-01-11T05:20:20.648Z,1.17
2023-01-11T05:22:49.627Z,1.05
2023-01-11T05:25:18.069Z,0.80
2023-01-11T05:27:46.382Z,1.13
2023-01-11T05:30:16.335Z,1.10
2023-01-11T05:32:44.518Z,1.00
2023-01-11T05:35:12.651Z,0.98
2023-01-11T05:37:41.471Z,1.13
2023-01-11T05:40:11.470Z,0.85
2023-01-11T05:42:39.669Z,1.02
2023-01-11T05:45:26.755Z,1.30
2023-01-11T05:47:56.978Z,1.05
2023-01-11T05:50:25.603Z,0.82
2023-01-11T05:52:54.155Z,1.08
2023-01-11T05:55:22.457Z,1.30
2023-01-11T05:57:51.520Z,1.05
2023-01-11T06:00:25.068Z,1.10
2023-01-11T06:02:53.552Z,0.80
2023-01-11T06:05:23.210Z,0.80
2023-01-11T06:07:52.561Z,1.20
2023-01-11T06:10:20.713Z,0.93
2023-01-11T06:13:13.300Z,0.98
2023-01-11T06:15:44.353Z,1.00
2023-01-11T06:18:12.324Z,0.75
2023-01-11T06:20:41.872Z,0.93
2023-01-11T06:23:10.249Z,0.80
2023-01-11T06:25:38.315Z,1.25
2023-01-11T06:28:06.480Z,1.30
2023-01-11T06:30:34.418Z,1.00
2023-01-11T06:33:05.795Z,0.70
2023-01-11T06:35:38.104Z,1.23
2023-01-11T06:38:08.951Z,1.20
2023-01-11T06:40:37.299Z,0.80
2023-01-11T06:43:05.264Z,0.60
2023-01-11T06:45:33.508Z,0.98
2023-01-11T06:48:01.813Z,0.98
2023-01-11T06:50:29.768Z,1.10
2023-01-11T06:52:59.150Z,0.90
2023-01-11T06:55:30.017Z,1.10
2023-01-11T06:57:58.410Z,0.80
2023-01-11T07:00:26.447Z,1.10
2023-01-11T07:02:54.430Z,0.98
2023-01-11T07:05:22.536Z,0.95
2023-01-11T07:07:50.581Z,1.00
2023-01-11T07:10:18.560Z,0.80
2023-01-11T07:12:47.815Z,0.60
2023-01-11T07:15:15.722Z,0.90
2023-01-11T07:17:43.593Z,1.08
2023-01-11T07:20:16.111Z,0.88
2023-01-11T07:25:12.096Z,1.10
2023-01-11T07:27:42.698Z,1.17
2023-01-11T07:30:13.251Z,0.65
2023-01-11T07:32:44.733Z,0.88
2023-01-11T07:35:12.601Z,0.93
2023-01-11T07:37:41.497Z,1.10
2023-01-11T07:40:11.207Z,1.10
2023-01-11T07:42:56.822Z,0.90
2023-01-11T07:45:31.563Z,1.05
2023-01-11T07:48:11.060Z,0.73
2023-01-11T07:50:44.996Z,0.80
2023-01-11T07:53:15.470Z,0.90
2023-01-11T07:55:43.867Z,0.75
2023-01-11T07:58:13.726Z,0.80
2023-01-11T08:00:43.450Z,1.10
2023-01-11T08:03:11.792Z,0.90
2023-01-11T08:05:40.571Z,0.82
2023-01-11T08:08:12.048Z,0.50
2023-01-11T08:10:42.682Z,1.25
2023-01-11T08:13:31.072Z,0.52
2023-01-11T08:16:04.396Z,0.85
2023-01-11T08:18:33.126Z,0.80
2023-01-11T08:21:01.658Z,0.80
2023-01-11T08:23:31.655Z,1.00
2023-01-11T08:26:00.361Z,1.00
2023-01-11T08:28:30.618Z,0.90
2023-01-11T08:31:03.400Z,0.98
2023-01-11T08:33:35.910Z,0.65
2023-01-11T08:36:06.264Z,0.95
2023-01-11T08:38:34.299Z,0.70
2023-01-11T08:41:02.484Z,0.90
2023-01-11T08:43:31.573Z,0.75
2023-01-11T08:46:00.850Z,0.85
2023-01-11T08:48:28.727Z,0.90
2023-01-11T08:50:58.639Z,1.25
2023-01-11T08:53:26.965Z,0.70
2023-01-11T08:55:55.177Z,0.80
2023-01-11T08:58:26.495Z,0.70
2023-01-11T09:00:54.915Z,0.70
2023-01-11T09:03:24.583Z,0.90
2023-01-11T09:05:53.944Z,1.20
2023-01-11T09:08:21.862Z,0.60
2023-01-11T09:10:49.742Z,0.77
2023-01-11T09:13:17.788Z,0.68
2023-01-11T09:15:46.748Z,0.70
2023-01-11T09:18:16.062Z,0.70
2023-01-11T09:20:45.382Z,0.60
2023-01-11T09:23:13.268Z,0.98
2023-01-11T09:25:41.218Z,0.90
2023-01-11T09:28:09.287Z,0.68
2023-01-11T09:30:39.114Z,0.80
2023-01-11T09:33:11.749Z,0.70
2023-01-11T09:35:42.573Z,0.70
2023-01-11T09:38:11.892Z,0.75
2023-01-11T09:40:50.227Z,0.68
2023-01-11T09:43:20.382Z,0.55
2023-01-11T09:45:51.930Z,0.82
2023-01-11T09:48:28.839Z,0.63
2023-01-11T09:51:07.329Z,0.93
2023-01-11T09:53:42.878Z,0.77
2023-01-11T09:56:17.073Z,1.15
2023-01-11T09:59:00.778Z,0.90
2023-01-11T10:01:45.609Z,0.75
2023-01-11T10:04:36.677Z,1.10
2023-01-11T10:07:24.616Z,0.82
2023-01-11T10:18:40.364Z,0.80
2023-01-11T10:19:31.655Z,0.90
2023-01-11T10:22:00.389Z,0.68
2023-01-11T10:24:33.586Z,1.20
2023-01-11T10:27:05.912Z,0.70
2023-01-11T10:29:49.745Z,0.52
2023-01-11T10:32:34.639Z,0.98
2023-01-11T10:35:29.949Z,1.23
2023-01-11T10:38:20.255Z,1.10
2023-01-11T10:41:08.303Z,1.90
2023-01-11T10:43:43.207Z,0.98
2023-01-11T10:46:16.531Z,0.93
2023-01-11T10:48:45.618Z,1.35
2023-01-11T10:51:24.774Z,1.73
2023-01-11T10:54:01.681Z,0.88
2023-01-11T10:57:02.351Z,0.90
2023-01-11T10:59:52.415Z,0.90
2023-01-11T11:02:38.589Z,0.80
2023-01-11T11:05:20.428Z,1.00
2023-01-11T11:07:55.525Z,1.10
2023-01-11T11:10:30.724Z,0.98
2023-01-11T11:13:23.468Z,0.90
2023-01-11T11:16:02.165Z,0.90
2023-01-11T11:18:30.191Z,1.30
2023-01-11T11:21:05.103Z,1.00
2023-01-11T11:23:34.117Z,0.88
2023-01-11T11:26:05.493Z,1.00
2023-01-11T11:28:34.409Z,1.48
2023-01-11T11:31:07.088Z,1.23
2023-01-11T11:33:37.031Z,1.17
2023-01-11T11:36:07.898Z,1.20
2023-01-11T11:38:38.114Z,1.00
2023-01-11T11:41:08.474Z,1.08
2023-01-11T11:43:38.010Z,1.02
2023-01-11T11:46:28.411Z,1.00
2023-01-11T11:49:13.347Z,1.33
2023-01-11T11:51:43.183Z,1.00
2023-01-11T11:54:20.237Z,1.10
2023-01-11T11:56:49.342Z,1.42
2023-01-11T11:59:20.929Z,0.73
2023-01-11T12:01:59.139Z,1.15
2023-01-11T12:04:38.966Z,1.00
2023-01-11T12:07:09.863Z,1.15
2023-01-11T12:09:45.492Z,0.75
2023-01-11T12:12:18.257Z,1.00
2023-01-11T12:15:09.048Z,1.10
2023-01-11T12:17:38.613Z,0.90
2023-01-11T12:20:34.392Z,1.42
2023-01-11T12:23:18.580Z,1.00
2023-01-11T12:26:15.830Z,1.00
2023-01-11T12:29:15.259Z,1.40
2023-01-11T12:32:05.955Z,1.73
2023-01-11T12:35:05.202Z,1.33
2023-01-11T12:37:54.921Z,1.00
2023-01-11T12:40:33.442Z,1.15
2023-01-11T12:43:28.521Z,1.40
2023-01-11T12:46:06.131Z,0.90
2023-01-11T12:48:46.941Z,2.00
2023-01-11T12:51:28.080Z,0.90
2023-01-11T12:54:06.349Z,1.02
2023-01-11T12:56:59.555Z,1.00
2023-01-11T12:59:51.810Z,0.90
2023-01-11T13:02:37.923Z,0.90
2023-01-11T13:05:19.915Z,1.10
2023-01-11T13:08:03.572Z,1.00
2023-01-11T13:10:41.083Z,0.60
2023-01-11T13:13:15.888Z,0.70
2023-01-11T13:15:53.611Z,0.88
2023-01-11T13:18:29.508Z,1.23
2023-01-11T13:21:03.276Z,0.77
2023-01-11T13:23:40.291Z,0.98
2023-01-11T13:26:18.112Z,0.60
2023-01-11T13:28:50.232Z,0.82
2023-01-11T13:31:19.808Z,0.70
2023-01-11T13:33:53.105Z,0.50
2023-01-11T13:36:28.275Z,0.50
2023-01-11T13:39:02.995Z,0.80
2023-01-11T13:41:46.469Z,0.63
2023-01-11T13:44:23.243Z,0.75
2023-01-11T13:47:00.763Z,0.88
2023-01-11T13:49:52.761Z,0.55
2023-01-11T13:52:26.541Z,1.07
2023-01-11T13:55:11.220Z,0.70
2023-01-11T13:57:48.894Z,0.80
2023-01-11T14:00:23.202Z,0.80
2023-01-11T14:02:56.683Z,0.60
2023-01-11T14:05:25.280Z,0.65
2023-01-11T14:08:08.152Z,0.80
2023-01-11T14:10:48.836Z,0.93
2023-01-11T14:14:04.235Z,1.10
2023-01-11T14:16:40.484Z,0.80
2023-01-11T14:19:21.711Z,0.80
2023-01-11T14:22:09.670Z,0.82
2023-01-11T14:24:42.164Z,1.23
2023-01-11T14:30:42.071Z,1.00
2023-01-11T14:33:32.448Z,1.10
2023-01-11T14:36:29.236Z,1.15
2023-01-11T14:39:52.307Z,1.10
2023-01-11T14:42:51.541Z,1.38
2023-01-11T14:45:43.301Z,0.75
2023-01-11T14:48:27.898Z,0.93
2023-01-11T14:51:23.804Z,1.02
2023-01-11T14:53:58.048Z,1.67
2023-01-11T14:56:50.062Z,1.25
2023-01-11T14:59:35.970Z,1.07
2023-01-11T15:02:26.389Z,1.00
2023-01-11T15:05:38.703Z,1.45
2023-01-11T15:08:31.007Z,1.45
2023-01-11T15:11:00.670Z,1.13
2023-01-11T15:13:34.725Z,1.77
2023-01-11T15:16:27.203Z,0.93
2023-01-11T15:18:57.204Z,1.40
2023-01-11T15:21:28.071Z,1.95
2023-01-11T15:23:58.603Z,1.70
2023-01-11T15:26:28.074Z,1.15
2023-01-11T15:28:58.081Z,1.60
2023-01-11T15:31:34.236Z,1.30
2023-01-11T15:34:17.949Z,1.13
2023-01-11T15:36:56.794Z,1.13
2023-01-11T15:39:34.306Z,1.30
2023-01-11T15:42:31.361Z,1.20
2023-01-11T15:45:33.128Z,0.90
2023-01-11T15:48:19.695Z,1.02
2023-01-11T15:51:21.842Z,1.70
2023-01-11T16:04:00.830Z,2.33
2023-01-11T16:06:41.015Z,2.50
2023-01-11T16:09:37.060Z,1.35
2023-01-11T16:12:20.558Z,1.60
2023-01-11T16:15:26.244Z,1.30
2023-01-11T16:17:55.105Z,1.45
2023-01-11T16:20:28.870Z,1.60
2023-01-11T16:23:01.509Z,1.65
2023-01-11T16:25:32.338Z,1.38
2023-01-11T16:28:01.906Z,1.60
2023-01-11T16:30:30.527Z,1.13
2023-01-11T16:33:22.872Z,1.50
2023-01-11T16:35:50.814Z,1.27
2023-01-11T16:38:23.167Z,1.60
2023-01-11T16:40:54.087Z,1.58
2023-01-11T16:43:25.742Z,1.73
2023-01-11T16:45:55.145Z,1.50
2023-01-11T16:48:24.440Z,2.22
2023-01-11T16:51:02.784Z,2.25
2023-01-11T16:53:34.304Z,1.67
2023-01-11T16:56:06.257Z,2.07
2023-01-11T16:58:35.807Z,1.48
2023-01-11T17:01:06.398Z,1.63
2023-01-11T17:03:37.558Z,1.35
2023-01-11T17:06:29.969Z,1.25
2023-01-11T17:09:00.013Z,1.40
2023-01-11T17:11:32.494Z,1.88
2023-01-11T17:16:48.337Z,1.48
2023-01-11T17:19:19.164Z,1.58
2023-01-11T17:21:49.196Z,3.00
2023-01-11T17:24:23.941Z,1.50
2023-01-11T17:26:54.742Z,1.58
2023-01-11T17:29:28.435Z,2.17
2023-01-11T17:31:57.909Z,2.22
2023-01-11T17:34:35.436Z,2.25
2023-01-11T17:37:10.441Z,2.13
2023-01-11T17:39:47.133Z,2.38
2023-01-11T17:42:34.032Z,2.10
2023-01-11T17:45:14.480Z,1.88
2023-01-11T17:47:46.705Z,2.22
2023-01-11T17:50:25.258Z,2.55
2023-01-11T17:53:01.888Z,1.92
2023-01-11T17:55:31.428Z,1.65
2023-01-11T17:58:19.938Z,2.50
2023-01-11T18:01:11.469Z,2.10
2023-01-11T18:03:44.951Z,3.15
2023-01-11T18:06:15.169Z,2.63
2023-01-11T18:08:48.395Z,2.40
2023-01-11T18:11:27.377Z,2.47
2023-01-11T18:13:58.560Z,1.98
2023-01-11T18:16:27.140Z,1.98
2023-01-11T18:18:57.380Z,2.17
2023-01-11T18:21:51.187Z,2.20
2023-01-11T18:24:43.331Z,2.55
2023-01-11T18:27:28.415Z,1.67
2023-01-11T18:29:58.188Z,2.45
2023-01-11T18:32:27.912Z,2.35
2023-01-11T18:34:56.253Z,2.83
2023-01-11T18:37:24.111Z,2.30
2023-01-11T18:39:53.130Z,2.72
2023-01-11T18:42:28.387Z,2.90
2023-01-11T18:44:56.481Z,2.72
2023-01-11T18:47:26.481Z,2.58
2023-01-11T18:49:55.055Z,4.40
2023-01-11T18:52:27.955Z,2.58
2023-01-11T18:54:56.837Z,2.20
2023-01-11T18:57:28.554Z,2.05
2023-01-11T18:59:56.782Z,2.80
2023-01-11T19:02:28.946Z,2.20
2023-01-11T19:04:58.066Z,2.20
2023-01-11T19:07:27.344Z,1.77
2023-01-11T19:09:59.339Z,1.98
2023-01-11T19:12:28.876Z,2.17
2023-01-11T19:14:58.189Z,1.75
2023-01-11T19:17:28.611Z,2.72
2023-01-11T19:19:56.708Z,2.83
2023-01-11T19:22:27.027Z,2.55
2023-01-11T19:24:55.273Z,2.50
2023-01-11T19:27:28.292Z,2.03
2023-01-11T19:29:59.727Z,2.05
2023-01-11T19:32:27.691Z,1.88
2023-01-11T19:34:58.146Z,2.20
2023-01-11T19:37:27.105Z,1.85
2023-01-11T19:39:55.289Z,1.42
2023-01-11T19:42:23.887Z,1.25
2023-01-11T19:44:52.700Z,1.40
2023-01-11T19:47:22.514Z,1.85
2023-01-11T19:49:56.553Z,2.00
2023-01-11T19:52:26.581Z,1.40
2023-01-11T19:54:55.108Z,2.20
2023-01-11T19:57:23.492Z,2.08
2023-01-11T19:59:52.027Z,2.13
2023-01-11T20:02:23.008Z,1.60
2023-01-11T20:04:54.302Z,2.20
2023-01-11T20:07:22.436Z,2.08
2023-01-11T20:09:50.925Z,2.05
2023-01-11T20:12:21.495Z,1.90
2023-01-11T20:14:49.760Z,2.67
2023-01-11T20:17:22.480Z,2.03
2023-01-11T20:19:54.515Z,1.67
2023-01-11T20:22:23.227Z,2.15
2023-01-11T20:24:51.593Z,2.58
2023-01-11T20:27:19.898Z,1.90
2023-01-11T20:29:47.988Z,1.73
2023-01-11T20:32:39.279Z,2.25
2023-01-11T20:35:11.884Z,2.42
2023-01-11T20:37:40.124Z,1.93
2023-01-11T20:40:11.800Z,1.83
2023-01-11T20:42:40.590Z,2.17
2023-01-11T20:45:14.799Z,2.25
2023-01-11T20:47:42.921Z,2.08
2023-01-11T20:50:12.656Z,1.70
2023-01-11T20:52:40.591Z,2.05
2023-01-11T20:55:10.093Z,2.05
2023-01-11T20:57:38.762Z,2.08
2023-01-11T21:02:37.930Z,2.88
2023-01-11T21:05:10.687Z,2.28
2023-01-11T21:07:40.384Z,2.75
2023-01-11T21:10:12.486Z,3.20
2023-01-11T21:12:42.979Z,3.15
2023-01-11T21:15:14.054Z,3.63
2023-01-11T21:17:42.154Z,3.22
2023-01-11T21:20:11.632Z,2.90
2023-01-11T21:22:41.165Z,3.40
2023-01-11T21:25:10.175Z,2.95
2023-01-11T21:27:38.993Z,3.25
2023-01-11T21:30:08.388Z,2.67
2023-01-11T21:32:36.479Z,2.97
2023-01-11T21:35:04.822Z,3.25
2023-01-11T21:37:33.143Z,2.42
2023-01-11T21:40:02.732Z,2.50
2023-01-11T21:42:33.483Z,3.17
2023-01-11T21:45:01.728Z,2.25
2023-01-11T21:47:29.858Z,2.97
2023-01-11T21:49:58.339Z,2.50
2023-01-11T21:52:26.582Z,2.92
2023-01-11T21:54:54.975Z,2.40
2023-01-11T21:57:27.128Z,2.60
2023-01-11T21:59:56.632Z,3.03
2023-01-11T22:02:24.793Z,1.77
2023-01-11T22:04:57.766Z,2.33
2023-01-11T22:07:32.107Z,2.13
2023-01-11T22:10:10.843Z,2.70
2023-01-11T22:12:40.697Z,2.85
2023-01-11T22:15:14.022Z,2.80
2023-01-11T22:17:42.520Z,2.70
2023-01-11T22:20:17.610Z,2.08
2023-01-11T22:22:46.094Z,2.35
2023-01-11T22:25:17.501Z,2.30
2023-01-11T22:27:47.177Z,2.28
2023-01-11T22:30:15.859Z,2.65
2023-01-11T22:32:44.258Z,3.28
2023-01-11T22:35:14.754Z,2.78
2023-01-11T22:37:42.988Z,2.40
2023-01-11T22:40:12.239Z,2.50
2023-01-11T22:42:40.203Z,2.63
2023-01-11T22:45:11.516Z,2.22
2023-01-11T22:47:41.514Z,2.20
2023-01-11T22:50:10.891Z,1.83
2023-01-11T22:52:39.948Z,2.45
2023-01-11T22:55:10.039Z,2.38
2023-01-11T22:57:38.223Z,2.22
2023-01-11T23:00:12.517Z,2.00
2023-01-11T23:02:40.631Z,2.45
2023-01-11T23:05:09.094Z,2.70
2023-01-11T23:07:37.181Z,2.25
2023-01-11T23:10:08.662Z,2.08
2023-01-11T23:12:54.033Z,1.92
2023-01-11T23:15:23.669Z,2.30
2023-01-11T23:17:51.873Z,1.83
2023-01-11T23:20:19.982Z,2.60
2023-01-11T23:22:51.110Z,1.95
2023-01-11T23:25:19.347Z,1.80
2023-01-11T23:27:47.337Z,2.30
2023-01-11T23:30:15.632Z,1.58
2023-01-11T23:32:44.937Z,1.73
2023-01-11T23:35:12.861Z,1.90
2023-01-11T23:37:40.708Z,1.23
2023-01-11T23:40:10.280Z,2.33
2023-01-11T23:42:38.447Z,1.60
2023-01-11T23:45:07.422Z,1.48
2023-01-11T23:47:34.279Z,2.20
2023-01-11T23:50:03.792Z,1.60
2023-01-11T23:52:33.489Z,1.88
2023-01-11T23:55:01.645Z,1.63
2023-01-11T23:57:29.554Z,2.83
2023-01-11T23:59:57.631Z,2.00
